TAM3945 SBRJ-SBSP
Flight info
| Callsign | TAM3945 |
|---|---|
| Flight time | 0h 41m |
| Altitude | 30000 |
| Route | NAXOP UZ45 IBDAL |
| Aircraft | A319/M-SDE3FGHIRWY/LB1 |
Departure
| Time | 2026-05-05 23:48 |
|---|---|
| Airport | Santos Dumont Airport (SBRJ) |
Arrival
| Time | 2026-05-06 00:30 |
|---|---|
| Airport | Congonhas–Deputado Freitas Nobre Airport (SBSP) |
| Time | Latitude | Longitude | Altitude | Speed | Heading |
|---|---|---|---|---|---|
| 2026-05-05 23:30 | -22.91394 | -43.16570 | 22 ft | 0 kts | 268° |
| 2026-05-05 23:40 | -22.91394 | -43.16547 | 22 ft | 4 kts | 273° |
| 2026-05-05 23:40 | -22.91398 | -43.16518 | 24 ft | 4 kts | 294° |
| 2026-05-05 23:41 | -22.91412 | -43.16500 | 23 ft | 3 kts | 351° |
| 2026-05-05 23:41 | -22.91416 | -43.16499 | 24 ft | 0 kts | 355° |
| 2026-05-05 23:43 | -22.91415 | -43.16499 | 24 ft | 1 kts | 355° |
| 2026-05-05 23:43 | -22.91392 | -43.16501 | 22 ft | 6 kts | 355° |
| 2026-05-05 23:43 | -22.91345 | -43.16504 | 22 ft | 6 kts | 356° |
| 2026-05-05 23:44 | -22.91302 | -43.16507 | 22 ft | 6 kts | 356° |
| 2026-05-05 23:44 | -22.91253 | -43.16510 | 23 ft | 8 kts | 356° |
| 2026-05-05 23:44 | -22.91193 | -43.16514 | 22 ft | 10 kts | 356° |
| 2026-05-05 23:44 | -22.91121 | -43.16520 | 22 ft | 11 kts | 350° |
| 2026-05-05 23:45 | -22.91049 | -43.16536 | 22 ft | 11 kts | 356° |
| 2026-05-05 23:45 | -22.90974 | -43.16541 | 22 ft | 10 kts | 355° |
| 2026-05-05 23:45 | -22.90903 | -43.16546 | 22 ft | 10 kts | 356° |
| 2026-05-05 23:45 | -22.90831 | -43.16549 | 22 ft | 11 kts | 7° |
| 2026-05-05 23:46 | -22.90741 | -43.16543 | 22 ft | 15 kts | 356° |
| 2026-05-05 23:46 | -22.90663 | -43.16548 | 23 ft | 7 kts | 356° |
| 2026-05-05 23:46 | -22.90603 | -43.16552 | 22 ft | 10 kts | 356° |
| 2026-05-05 23:46 | -22.90550 | -43.16555 | 22 ft | 9 kts | 356° |
| 2026-05-05 23:47 | -22.90501 | -43.16533 | 25 ft | 10 kts | 73° |
| 2026-05-05 23:47 | -22.90495 | -43.16444 | 23 ft | 14 kts | 86° |
| 2026-05-05 23:47 | -22.90470 | -43.16342 | 24 ft | 9 kts | 60° |
| 2026-05-05 23:47 | -22.90487 | -43.16319 | 24 ft | 5 kts | 167° |
| 2026-05-05 23:48 | -22.90503 | -43.16318 | 24 ft | 0 kts | 179° |
| 2026-05-05 23:48 | -22.90697 | -43.16306 | 25 ft | 74 kts | 176° |
| 2026-05-05 23:48 | -22.91516 | -43.16251 | 79 ft | 150 kts | 176° |
| 2026-05-05 23:48 | -22.92535 | -43.16069 | 782 ft | 149 kts | 154° |
| 2026-05-05 23:49 | -22.93347 | -43.15359 | 1285 ft | 152 kts | 133° |
| 2026-05-05 23:49 | -22.94075 | -43.14537 | 1802 ft | 153 kts | 131° |
| 2026-05-05 23:49 | -22.94849 | -43.13646 | 2035 ft | 173 kts | 131° |
| 2026-05-05 23:49 | -22.95806 | -43.12702 | 2227 ft | 199 kts | 137° |
| 2026-05-05 23:50 | -22.96922 | -43.11661 | 2613 ft | 222 kts | 139° |
| 2026-05-05 23:50 | -22.98164 | -43.10573 | 3184 ft | 240 kts | 148° |
| 2026-05-05 23:50 | -22.99831 | -43.10061 | 3662 ft | 261 kts | 181° |
| 2026-05-05 23:50 | -23.01553 | -43.10648 | 4462 ft | 269 kts | 215° |
| 2026-05-05 23:51 | -23.02736 | -43.12211 | 5373 ft | 274 kts | 245° |
| 2026-05-05 23:51 | -23.03447 | -43.14132 | 6332 ft | 275 kts | 248° |
| 2026-05-05 23:51 | -23.04131 | -43.16087 | 7222 ft | 279 kts | 248° |
| 2026-05-05 23:51 | -23.04817 | -43.18072 | 8073 ft | 283 kts | 248° |
| 2026-05-05 23:52 | -23.05516 | -43.20093 | 8917 ft | 288 kts | 248° |
| 2026-05-05 23:52 | -23.06232 | -43.22144 | 9753 ft | 293 kts | 247° |
| 2026-05-05 23:52 | -23.06968 | -43.24232 | 10449 ft | 303 kts | 247° |
| 2026-05-05 23:52 | -23.07754 | -43.26444 | 10747 ft | 324 kts | 248° |
| 2026-05-05 23:53 | -23.08578 | -43.28757 | 11324 ft | 332 kts | 248° |
| 2026-05-05 23:53 | -23.09417 | -43.31118 | 12014 ft | 337 kts | 248° |
| 2026-05-05 23:53 | -23.10264 | -43.33509 | 12717 ft | 341 kts | 248° |
| 2026-05-05 23:53 | -23.11117 | -43.35926 | 13422 ft | 344 kts | 248° |
| 2026-05-05 23:54 | -23.11967 | -43.38335 | 14093 ft | 348 kts | 248° |
| 2026-05-05 23:54 | -23.12850 | -43.40833 | 14688 ft | 352 kts | 248° |
| 2026-05-05 23:54 | -23.13732 | -43.43329 | 15256 ft | 356 kts | 248° |
| 2026-05-05 23:54 | -23.14613 | -43.45826 | 15821 ft | 360 kts | 249° |
| 2026-05-05 23:55 | -23.15510 | -43.48380 | 16392 ft | 363 kts | 249° |
| 2026-05-05 23:55 | -23.16416 | -43.50961 | 16948 ft | 368 kts | 249° |
| 2026-05-05 23:55 | -23.17334 | -43.53569 | 17486 ft | 372 kts | 249° |
| 2026-05-05 23:55 | -23.18264 | -43.56210 | 18028 ft | 376 kts | 249° |
| 2026-05-05 23:56 | -23.19202 | -43.58875 | 18581 ft | 379 kts | 249° |
| 2026-05-05 23:56 | -23.20144 | -43.61558 | 19107 ft | 381 kts | 249° |
| 2026-05-05 23:56 | -23.21092 | -43.64253 | 19630 ft | 383 kts | 249° |
| 2026-05-05 23:56 | -23.22042 | -43.66961 | 20169 ft | 384 kts | 249° |
| 2026-05-05 23:57 | -23.22994 | -43.69677 | 20775 ft | 384 kts | 249° |
| 2026-05-05 23:57 | -23.23944 | -43.72386 | 21361 ft | 384 kts | 248° |
| 2026-05-05 23:57 | -23.24897 | -43.75103 | 21951 ft | 384 kts | 248° |
| 2026-05-05 23:57 | -23.25847 | -43.77816 | 22535 ft | 384 kts | 248° |
| 2026-05-05 23:58 | -23.26798 | -43.80535 | 23094 ft | 386 kts | 248° |
| 2026-05-05 23:58 | -23.27755 | -43.83275 | 23588 ft | 389 kts | 248° |
| 2026-05-05 23:58 | -23.28716 | -43.86032 | 24064 ft | 391 kts | 248° |
| 2026-05-05 23:58 | -23.29681 | -43.88801 | 24518 ft | 393 kts | 248° |
| 2026-05-05 23:59 | -23.30652 | -43.91581 | 24982 ft | 394 kts | 248° |
| 2026-05-05 23:59 | -23.31629 | -43.94374 | 25433 ft | 395 kts | 248° |
| 2026-05-05 23:59 | -23.32594 | -43.97141 | 25880 ft | 396 kts | 248° |
| 2026-05-05 23:59 | -23.33573 | -43.99949 | 26327 ft | 398 kts | 248° |
| 2026-05-06 00:00 | -23.34554 | -44.02768 | 26768 ft | 399 kts | 248° |
| 2026-05-06 00:00 | -23.35537 | -44.05599 | 27203 ft | 400 kts | 248° |
| 2026-05-06 00:00 | -23.36522 | -44.08438 | 27632 ft | 402 kts | 248° |
| 2026-05-06 00:00 | -23.37514 | -44.11298 | 28054 ft | 403 kts | 248° |
| 2026-05-06 00:01 | -23.38507 | -44.14162 | 28451 ft | 405 kts | 248° |
| 2026-05-06 00:01 | -23.39502 | -44.17036 | 28859 ft | 406 kts | 248° |
| 2026-05-06 00:01 | -23.40502 | -44.19922 | 29264 ft | 408 kts | 248° |
| 2026-05-06 00:01 | -23.41509 | -44.22821 | 29660 ft | 410 kts | 248° |
| 2026-05-06 00:02 | -23.42517 | -44.25727 | 30056 ft | 411 kts | 248° |
| 2026-05-06 00:02 | -23.43527 | -44.28644 | 30181 ft | 409 kts | 248° |
| 2026-05-06 00:02 | -23.45584 | -44.34584 | 30196 ft | 429 kts | 248° |
| 2026-05-06 00:03 | -23.47698 | -44.40704 | 30191 ft | 438 kts | 248° |
| 2026-05-06 00:03 | -23.49834 | -44.46926 | 30196 ft | 439 kts | 248° |
| 2026-05-06 00:04 | -23.51966 | -44.53151 | 30193 ft | 438 kts | 248° |
| 2026-05-06 00:04 | -23.54113 | -44.59395 | 30196 ft | 438 kts | 248° |
| 2026-05-06 00:05 | -23.57313 | -44.68728 | 30187 ft | 438 kts | 248° |
| 2026-05-06 00:06 | -23.59439 | -44.74959 | 30190 ft | 437 kts | 248° |
| 2026-05-06 00:06 | -23.61552 | -44.81121 | 30181 ft | 437 kts | 248° |
| 2026-05-06 00:07 | -23.63676 | -44.87327 | 30188 ft | 436 kts | 248° |
| 2026-05-06 00:07 | -23.65794 | -44.93556 | 30184 ft | 436 kts | 248° |
| 2026-05-06 00:08 | -23.67893 | -44.99744 | 30188 ft | 436 kts | 248° |
| 2026-05-06 00:08 | -23.69993 | -45.05927 | 30190 ft | 436 kts | 248° |
| 2026-05-06 00:09 | -23.72105 | -45.12159 | 30186 ft | 435 kts | 248° |
| 2026-05-06 00:09 | -23.74187 | -45.18315 | 30183 ft | 435 kts | 248° |
| 2026-05-06 00:10 | -23.75909 | -45.24648 | 30173 ft | 438 kts | 259° |
| 2026-05-06 00:10 | -23.76425 | -45.31267 | 30170 ft | 439 kts | 263° |
| 2026-05-06 00:11 | -23.76915 | -45.37919 | 30171 ft | 439 kts | 263° |
| 2026-05-06 00:11 | -23.77412 | -45.44583 | 30181 ft | 439 kts | 263° |
| 2026-05-06 00:12 | -23.77899 | -45.51195 | 30178 ft | 439 kts | 263° |
| 2026-05-06 00:12 | -23.78303 | -45.56725 | 30177 ft | 439 kts | 263° |
| 2026-05-06 00:13 | -23.78791 | -45.63379 | 30172 ft | 439 kts | 263° |
| 2026-05-06 00:13 | -23.79355 | -45.71110 | 30003 ft | 440 kts | 263° |
| 2026-05-06 00:13 | -23.79595 | -45.74452 | 29424 ft | 441 kts | 263° |
| 2026-05-06 00:14 | -23.79835 | -45.77832 | 28168 ft | 452 kts | 263° |
| 2026-05-06 00:14 | -23.80078 | -45.81267 | 26957 ft | 462 kts | 264° |
| 2026-05-06 00:14 | -23.80327 | -45.84806 | 25758 ft | 470 kts | 264° |
| 2026-05-06 00:14 | -23.80495 | -45.87186 | 24978 ft | 474 kts | 264° |
| 2026-05-06 00:15 | -23.80752 | -45.90813 | 24024 ft | 477 kts | 265° |
| 2026-05-06 00:15 | -23.81004 | -45.94394 | 23077 ft | 476 kts | 265° |
| 2026-05-06 00:15 | -23.81256 | -45.97989 | 22216 ft | 472 kts | 265° |
| 2026-05-06 00:15 | -23.81505 | -46.01565 | 21355 ft | 468 kts | 265° |
| 2026-05-06 00:16 | -23.81749 | -46.05067 | 20521 ft | 465 kts | 265° |
| 2026-05-06 00:16 | -23.81995 | -46.08592 | 19697 ft | 463 kts | 265° |
| 2026-05-06 00:16 | -23.82241 | -46.12082 | 18863 ft | 459 kts | 265° |
| 2026-05-06 00:16 | -23.82480 | -46.15495 | 18179 ft | 453 kts | 265° |
| 2026-05-06 00:17 | -23.82715 | -46.18899 | 17194 ft | 445 kts | 265° |
| 2026-05-06 00:17 | -23.82943 | -46.22242 | 16418 ft | 434 kts | 265° |
| 2026-05-06 00:17 | -23.83162 | -46.25517 | 15722 ft | 430 kts | 265° |
| 2026-05-06 00:17 | -23.83380 | -46.28774 | 15031 ft | 428 kts | 265° |
| 2026-05-06 00:18 | -23.83596 | -46.31970 | 14356 ft | 426 kts | 265° |
| 2026-05-06 00:18 | -23.83815 | -46.35189 | 13616 ft | 425 kts | 265° |
| 2026-05-06 00:18 | -23.84032 | -46.38381 | 12885 ft | 418 kts | 265° |
| 2026-05-06 00:18 | -23.84243 | -46.41523 | 12159 ft | 411 kts | 265° |
| 2026-05-06 00:19 | -23.84450 | -46.44618 | 11437 ft | 407 kts | 265° |
| 2026-05-06 00:19 | -23.84655 | -46.47651 | 11215 ft | 392 kts | 265° |
| 2026-05-06 00:19 | -23.84850 | -46.50565 | 11099 ft | 375 kts | 265° |
| 2026-05-06 00:19 | -23.85034 | -46.53354 | 10983 ft | 359 kts | 266° |
| 2026-05-06 00:20 | -23.85209 | -46.56023 | 10868 ft | 346 kts | 266° |
| 2026-05-06 00:20 | -23.85341 | -46.58600 | 10753 ft | 334 kts | 271° |
| 2026-05-06 00:20 | -23.84943 | -46.61050 | 10640 ft | 323 kts | 290° |
| 2026-05-06 00:20 | -23.83916 | -46.63176 | 10531 ft | 313 kts | 308° |
| 2026-05-06 00:21 | -23.82436 | -46.64808 | 10358 ft | 302 kts | 324° |
| 2026-05-06 00:21 | -23.80667 | -46.66042 | 10106 ft | 297 kts | 329° |
| 2026-05-06 00:21 | -23.78916 | -46.67239 | 9596 ft | 304 kts | 328° |
| 2026-05-06 00:21 | -23.77125 | -46.68481 | 9289 ft | 303 kts | 328° |
| 2026-05-06 00:22 | -23.75379 | -46.69699 | 9282 ft | 291 kts | 328° |
| 2026-05-06 00:22 | -23.73706 | -46.70868 | 9290 ft | 280 kts | 328° |
| 2026-05-06 00:22 | -23.72098 | -46.71992 | 9295 ft | 269 kts | 328° |
| 2026-05-06 00:22 | -23.70525 | -46.73088 | 9052 ft | 270 kts | 328° |
| 2026-05-06 00:23 | -23.68931 | -46.74194 | 8761 ft | 272 kts | 328° |
| 2026-05-06 00:23 | -23.67324 | -46.75310 | 8414 ft | 275 kts | 328° |
| 2026-05-06 00:23 | -23.65699 | -46.76437 | 7941 ft | 277 kts | 328° |
| 2026-05-06 00:23 | -23.64090 | -46.77554 | 7629 ft | 271 kts | 328° |
| 2026-05-06 00:24 | -23.62517 | -46.78646 | 7342 ft | 265 kts | 328° |
| 2026-05-06 00:24 | -23.60979 | -46.79713 | 7041 ft | 260 kts | 329° |
| 2026-05-06 00:24 | -23.59461 | -46.80764 | 6771 ft | 254 kts | 329° |
| 2026-05-06 00:24 | -23.57952 | -46.81634 | 6468 ft | 243 kts | 348° |
| 2026-05-06 00:25 | -23.56349 | -46.81543 | 6218 ft | 226 kts | 25° |
| 2026-05-06 00:25 | -23.55179 | -46.80531 | 5956 ft | 210 kts | 58° |
| 2026-05-06 00:25 | -23.54430 | -46.79211 | 5790 ft | 201 kts | 60° |
| 2026-05-06 00:25 | -23.53689 | -46.77942 | 5515 ft | 193 kts | 59° |
| 2026-05-06 00:26 | -23.52982 | -46.76744 | 5314 ft | 184 kts | 59° |
| 2026-05-06 00:26 | -23.52298 | -46.75588 | 5112 ft | 179 kts | 59° |
| 2026-05-06 00:26 | -23.51737 | -46.74403 | 4886 ft | 174 kts | 82° |
| 2026-05-06 00:26 | -23.51978 | -46.73189 | 4779 ft | 164 kts | 124° |
| 2026-05-06 00:27 | -23.52854 | -46.72441 | 4628 ft | 159 kts | 147° |
| 2026-05-06 00:27 | -23.53772 | -46.71806 | 4436 ft | 153 kts | 144° |
| 2026-05-06 00:27 | -23.54651 | -46.71194 | 4263 ft | 148 kts | 144° |
| 2026-05-06 00:27 | -23.55501 | -46.70605 | 4086 ft | 140 kts | 144° |
| 2026-05-06 00:28 | -23.56306 | -46.70048 | 3912 ft | 135 kts | 144° |
| 2026-05-06 00:28 | -23.57094 | -46.69503 | 3776 ft | 133 kts | 144° |
| 2026-05-06 00:28 | -23.57874 | -46.68963 | 3607 ft | 133 kts | 144° |
| 2026-05-06 00:28 | -23.58652 | -46.68425 | 3446 ft | 133 kts | 145° |
| 2026-05-06 00:29 | -23.59425 | -46.67890 | 3265 ft | 133 kts | 145° |
| 2026-05-06 00:29 | -23.60213 | -46.67346 | 3071 ft | 134 kts | 145° |
| 2026-05-06 00:29 | -23.60996 | -46.66797 | 2887 ft | 134 kts | 144° |
| 2026-05-06 00:29 | -23.61789 | -46.66254 | 2702 ft | 135 kts | 147° |
| 2026-05-06 00:30 | -23.62559 | -46.65719 | 2605 ft | 122 kts | 148° |
| 2026-05-06 00:30 | -23.62998 | -46.65418 | 2610 ft | 26 kts | 147° |
| 2026-05-06 00:30 | -23.63131 | -46.65375 | 2609 ft | 12 kts | 189° |
| 2026-05-06 00:30 | -23.63163 | -46.65444 | 2603 ft | 17 kts | 310° |
| 2026-05-06 00:31 | -23.63092 | -46.65496 | 2602 ft | 12 kts | 328° |
| 2026-05-06 00:31 | -23.63015 | -46.65521 | 2603 ft | 11 kts | 355° |
| 2026-05-06 00:31 | -23.62950 | -46.65559 | 2603 ft | 11 kts | 327° |
| 2026-05-06 00:31 | -23.62885 | -46.65603 | 2603 ft | 11 kts | 328° |
| 2026-05-06 00:32 | -23.62817 | -46.65651 | 2603 ft | 12 kts | 327° |
| 2026-05-06 00:32 | -23.62750 | -46.65696 | 2602 ft | 11 kts | 327° |
| 2026-05-06 00:32 | -23.62682 | -46.65743 | 2602 ft | 12 kts | 327° |
| 2026-05-06 00:32 | -23.62623 | -46.65787 | 2602 ft | 7 kts | 311° |
| 2026-05-06 00:33 | -23.62637 | -46.65829 | 2601 ft | 6 kts | 236° |
| 2026-05-06 00:33 | -23.62653 | -46.65858 | 2601 ft | 1 kts | 237° |
| 2026-05-06 00:33 | -23.62658 | -46.65865 | 2601 ft | 1 kts | 237° |
| 2026-05-06 00:33 | -23.62659 | -46.65867 | 2601 ft | 0 kts | 237° |